Time;durP1;ratioP1;P1;durP2;ratioP2;P2;SDS_P1;SDS_P2;PMS_P1;PMS_P2;Temp;Humidity;BMP_temperature;BMP_pressure;BME280_temperature;BME280_humidity;BME280_pressure;Samples;Min_cycle;Max_cycle;Signal;HPM_P1;HPM_P2
2021/08/05 00:01:21;;;;;;;;;;;;;;;29.09;37.23;96914.94;5088695;28;1967;-49
2021/08/05 00:03:46;;;;;;;;;;;;;;;29.19;37.11;96909.50;5089058;28;1131;-49
2021/08/05 00:06:11;;;;;;;;;;;;;;;29.12;37.46;96911.97;5088436;28;1591;-49
2021/08/05 00:08:36;;;;;;;;;;;;;;;29.12;37.52;96905.81;5090419;28;1017;-49
2021/08/05 00:11:02;;;;;;;;;;;;;;;29.02;37.33;96913.91;5088347;28;1726;-48
2021/08/05 00:13:28;;;;;;;;;;;;;;;29.10;37.38;96908.66;5089225;28;1440;-50
2021/08/05 00:15:53;;;;;;;;;;;;;;;29.02;37.35;96905.94;5089298;28;1078;-49
2021/08/05 00:18:19;;;;;;;;;;;;;;;29.17;37.11;96903.53;5087668;28;1530;-49
2021/08/05 00:20:44;;;;;;;;;;;;;;;29.14;37.32;96903.84;5088939;28;1930;-48
2021/08/05 00:23:11;;;;;;;;;;;;;;;29.23;37.13;96905.56;5086719;28;1371;-49
2021/08/05 00:25:36;;;;;;;;;;;;;;;29.14;37.10;96904.66;5089241;28;1563;-47
2021/08/05 00:28:01;;;;;;;;;;;;;;;29.09;37.38;96906.16;5086924;28;1523;-49
2021/08/05 00:30:27;;;;;;;;;;;;;;;29.06;37.49;96898.50;5089358;28;1239;-49
2021/08/05 00:32:52;;;;;;;;;;;;;;;29.20;37.27;96901.38;5088321;28;1125;-50
2021/08/05 00:35:17;;;;;;;;;;;;;;;29.07;37.31;96902.81;5090485;28;1154;-48
2021/08/05 00:37:42;;;;;;;;;;;;;;;29.09;37.27;96901.66;5087355;28;1897;-49
2021/08/05 00:40:07;;;;;;;;;;;;;;;29.16;37.11;96894.75;5088788;28;1115;-49
2021/08/05 00:42:33;;;;;;;;;;;;;;;29.07;37.50;96902.81;5082938;28;1998;-47
2021/08/05 00:44:58;;;;;;;;;;;;;;;29.03;37.48;96901.47;5088316;28;1333;-49
2021/08/05 00:47:26;;;;;;;;;;;;;;;28.97;37.41;96892.31;5087842;28;1313;-50
2021/08/05 00:49:51;;;;;;;;;;;;;;;29.04;37.48;96887.19;5086612;28;1685;-49
2021/08/05 00:52:17;;;;;;;;;;;;;;;29.02;37.46;96886.53;5088609;28;1252;-49
2021/08/05 00:54:42;;;;;;;;;;;;;;;29.02;37.51;96887.38;5088277;28;1294;-48
2021/08/05 00:57:08;;;;;;;;;;;;;;;29.04;37.60;96880.06;5087051;28;1604;-50
2021/08/05 00:59:33;;;;;;;;;;;;;;;29.02;37.45;96875.91;5075078;28;1155;-48
2021/08/05 01:02:02;;;;;;;;;;;;;;;28.95;37.83;96883.69;5083126;28;1967;-50
2021/08/05 01:04:27;;;;;;;;;;;;;;;28.96;37.63;96884.50;5074882;28;1093;-49
2021/08/05 01:06:59;;;;;;;;;;;;;;;29.02;37.31;96883.88;5076339;28;1581;-49
2021/08/05 01:09:27;;;;;;;;;;;;;;;28.98;37.34;96888.66;5087604;28;1690;-48
2021/08/05 01:14:21;;;;;;;;;;;;;;;29.12;37.33;96873.97;5047859;28;1356;-50
2021/08/05 01:16:47;;;;;;;;;;;;;;;29.15;37.06;96873.63;5054601;28;1136;-50
2021/08/05 01:19:17;;;;;;;;;;;;;;;29.15;37.12;96874.50;5047456;28;1200;-50
2021/08/05 01:21:44;;;;;;;;;;;;;;;29.11;37.09;96874.97;5046707;28;1910;-50
2021/08/05 01:24:10;;;;;;;;;;;;;;;29.10;37.46;96870.66;5041182;28;1600;-50
2021/08/05 01:26:48;;;;;;;;;;;;;;;29.01;37.52;96860.97;5046361;28;1786;-50
2021/08/05 01:29:16;;;;;;;;;;;;;;;29.01;37.45;96864.47;5048335;28;1090;-50
2021/08/05 01:31:41;;;;;;;;;;;;;;;28.98;37.32;96864.78;5038842;28;1511;-50
2021/08/05 01:34:06;;;;;;;;;;;;;;;29.16;37.20;96854.91;5036046;28;1687;-50
2021/08/05 01:36:32;;;;;;;;;;;;;;;29.09;37.16;96858.38;5043426;28;1395;-50
2021/08/05 01:38:57;;;;;;;;;;;;;;;29.19;37.05;96865.19;5045527;28;1558;-50
2021/08/05 01:41:22;;;;;;;;;;;;;;;29.00;37.62;96865.47;5047289;28;1969;-50
2021/08/05 01:43:47;;;;;;;;;;;;;;;29.13;37.18;96865.00;5041212;28;1348;-51
2021/08/05 01:46:13;;;;;;;;;;;;;;;29.41;36.78;96862.94;4982983;28;1057;-50
2021/08/05 01:48:38;;;;;;;;;;;;;;;29.22;36.82;96858.72;5041557;28;1510;-49
2021/08/05 01:51:03;;;;;;;;;;;;;;;29.07;37.16;96862.97;5043529;28;1288;-50
2021/08/05 01:53:28;;;;;;;;;;;;;;;29.07;37.16;96858.53;5044618;28;1203;-50
2021/08/05 01:55:53;;;;;;;;;;;;;;;29.01;37.25;96855.69;5046510;28;1538;-51
2021/08/05 01:58:19;;;;;;;;;;;;;;;28.99;37.66;96858.47;5038844;28;1603;-50
2021/08/05 02:00:44;;;;;;;;;;;;;;;29.10;37.31;96860.84;5047623;28;1902;-50
2021/08/05 02:03:09;;;;;;;;;;;;;;;29.07;37.33;96861.19;5047078;28;1184;-50
2021/08/05 02:05:40;;;;;;;;;;;;;;;29.04;37.21;96848.22;5044544;28;1729;-50
2021/08/05 02:08:06;;;;;;;;;;;;;;;28.89;37.61;96847.13;5047055;28;1491;-50
2021/08/05 02:10:35;;;;;;;;;;;;;;;29.04;37.43;96842.91;5046290;28;1096;-50
2021/08/05 02:13:01;;;;;;;;;;;;;;;29.02;37.30;96847.53;5045108;28;1632;-50
2021/08/05 02:15:27;;;;;;;;;;;;;;;29.02;37.33;96847.53;5050442;28;1267;-50
2021/08/05 02:17:52;;;;;;;;;;;;;;;29.01;37.69;96842.41;5041173;28;1137;-50
2021/08/05 02:20:17;;;;;;;;;;;;;;;29.05;37.34;96843.72;5040624;28;1661;-50
2021/08/05 02:22:43;;;;;;;;;;;;;;;29.20;37.11;96842.97;5038629;28;1894;-50
2021/08/05 02:25:09;;;;;;;;;;;;;;;28.95;37.64;96841.22;5035470;28;1183;-50
2021/08/05 02:27:34;;;;;;;;;;;;;;;29.07;37.34;96833.78;5042594;28;1578;-50
2021/08/05 02:29:59;;;;;;;;;;;;;;;28.95;37.61;96838.56;5036389;28;1238;-50
2021/08/05 02:32:24;;;;;;;;;;;;;;;29.02;37.35;96842.25;5046016;28;1384;-50
2021/08/05 02:34:49;;;;;;;;;;;;;;;28.96;37.53;96832.25;5046862;28;1319;-50
2021/08/05 02:37:15;;;;;;;;;;;;;;;29.03;37.58;96827.97;5039532;28;1863;-51
2021/08/05 02:39:40;;;;;;;;;;;;;;;29.12;37.21;96832.31;5039708;28;1622;-51
2021/08/05 02:42:05;;;;;;;;;;;;;;;29.04;37.15;96828.78;5045171;28;2318;-50
2021/08/05 02:44:30;;;;;;;;;;;;;;;29.12;37.24;96829.66;5046733;28;1199;-50
2021/08/05 02:46:55;;;;;;;;;;;;;;;29.16;36.94;96828.34;5046053;28;1151;-50
2021/08/05 02:49:21;;;;;;;;;;;;;;;29.04;37.57;96823.50;5046731;28;1117;-50
2021/08/05 02:51:46;;;;;;;;;;;;;;;29.04;37.06;96823.50;5040515;28;1626;-50
2021/08/05 02:54:11;;;;;;;;;;;;;;;29.12;37.07;96819.03;5042140;28;1561;-50
2021/08/05 02:56:38;;;;;;;;;;;;;;;29.09;37.47;96818.53;5038437;28;1550;-50
2021/08/05 02:59:03;;;;;;;;;;;;;;;29.13;37.19;96820.69;5047042;28;1214;-50
2021/08/05 03:01:29;;;;;;;;;;;;;;;29.02;37.09;96818.34;5046600;28;1969;-50
2021/08/05 03:03:54;;;;;;;;;;;;;;;29.04;37.53;96812.88;5046564;28;1144;-50
2021/08/05 03:06:20;;;;;;;;;;;;;;;29.24;36.82;96818.75;5045074;28;1582;-51
2021/08/05 03:08:46;;;;;;;;;;;;;;;29.03;37.15;96819.19;5046846;28;1072;-50
2021/08/05 03:11:11;;;;;;;;;;;;;;;29.25;36.82;96813.28;5045500;28;1560;-50
2021/08/05 03:13:36;;;;;;;;;;;;;;;29.20;37.06;96818.22;5045865;28;1441;-48
2021/08/05 03:16:01;;;;;;;;;;;;;;;29.10;37.15;96813.06;5044564;28;1934;-50
2021/08/05 03:18:27;;;;;;;;;;;;;;;29.17;37.25;96810.59;5045135;28;1195;-49
2021/08/05 03:20:52;;;;;;;;;;;;;;;29.23;36.75;96812.63;5046016;28;1906;-50
2021/08/05 03:23:17;;;;;;;;;;;;;;;29.12;37.02;96820.84;5043795;28;1755;-50
2021/08/05 03:25:42;;;;;;;;;;;;;;;29.13;37.17;96819.88;5045653;28;1530;-50
2021/08/05 03:28:07;;;;;;;;;;;;;;;29.23;36.90;96815.28;5046226;28;964;-50
2021/08/05 03:30:32;;;;;;;;;;;;;;;29.14;37.11;96811.72;5045965;28;1250;-50
2021/08/05 03:33:00;;;;;;;;;;;;;;;29.13;36.99;96810.06;5046600;28;1213;-50
2021/08/05 03:35:26;;;;;;;;;;;;;;;29.12;36.92;96811.06;5044210;28;1649;-50
2021/08/05 03:37:52;;;;;;;;;;;;;;;29.18;37.05;96807.78;5043643;28;1509;-50
2021/08/05 03:40:17;;;;;;;;;;;;;;;29.07;37.43;96808.09;5045576;28;1716;-50
2021/08/05 03:42:42;;;;;;;;;;;;;;;29.20;36.98;96818.22;5042805;28;1963;-49
2021/08/05 03:45:07;;;;;;;;;;;;;;;29.26;36.95;96806.13;5046680;28;1077;-49
2021/08/05 03:47:33;;;;;;;;;;;;;;;29.15;36.92;96808.09;5044996;28;1785;-49
2021/08/05 03:49:58;;;;;;;;;;;;;;;29.11;37.22;96808.59;5045135;28;1546;-50
2021/08/05 03:52:23;;;;;;;;;;;;;;;29.07;37.34;96804.56;5044159;28;1752;-50
2021/08/05 03:54:48;;;;;;;;;;;;;;;29.01;37.51;96803.41;5044631;28;1568;-50
2021/08/05 03:57:14;;;;;;;;;;;;;;;29.03;37.17;96805.91;5045275;28;1554;-50
2021/08/05 03:59:39;;;;;;;;;;;;;;;29.03;37.26;96801.41;5043877;28;1443;-49
2021/08/05 04:02:04;;;;;;;;;;;;;;;29.09;37.41;96799.94;5048504;28;1978;-51
2021/08/05 04:04:29;;;;;;;;;;;;;;;29.06;37.17;96801.09;5047359;28;1529;-50
2021/08/05 04:06:55;;;;;;;;;;;;;;;29.15;37.08;96804.59;5049865;28;1107;-50
2021/08/05 04:09:20;;;;;;;;;;;;;;;29.06;37.14;96802.91;5048774;28;1388;-50
2021/08/05 04:11:45;;;;;;;;;;;;;;;28.98;37.45;96800.22;5047803;28;1598;-50
2021/08/05 04:14:10;;;;;;;;;;;;;;;29.18;36.97;96806.94;5048240;28;1280;-50
2021/08/05 04:16:36;;;;;;;;;;;;;;;29.06;37.35;96809.06;5050369;28;1059;-50
2021/08/05 04:19:01;;;;;;;;;;;;;;;29.06;37.05;96801.09;5048814;28;1033;-50
2021/08/05 04:21:26;;;;;;;;;;;;;;;29.01;37.65;96800.75;5048381;28;1979;-50
2021/08/05 04:23:51;;;;;;;;;;;;;;;29.10;36.98;96806.91;5048303;28;1344;-50
2021/08/05 04:26:16;;;;;;;;;;;;;;;29.08;37.04;96804.44;5047760;28;1582;-50
2021/08/05 04:28:42;;;;;;;;;;;;;;;29.05;37.09;96799.44;5046590;28;1549;-51
2021/08/05 04:31:07;;;;;;;;;;;;;;;29.17;37.14;96799.97;5050595;28;1304;-48
2021/08/05 04:33:32;;;;;;;;;;;;;;;29.00;37.18;96801.75;5046024;28;1577;-50
2021/08/05 04:35:57;;;;;;;;;;;;;;;29.14;37.14;96798.44;5049383;28;1312;-50
2021/08/05 04:38:23;;;;;;;;;;;;;;;29.09;37.40;96799.94;5049305;28;1136;-50
2021/08/05 04:40:48;;;;;;;;;;;;;;;29.05;37.05;96799.44;5045437;28;1906;-50
2021/08/05 04:43:13;;;;;;;;;;;;;;;29.03;37.22;96793.47;5049624;28;1249;-50
2021/08/05 04:45:38;;;;;;;;;;;;;;;29.07;37.31;96801.91;5049325;28;1293;-50
2021/08/05 04:48:04;;;;;;;;;;;;;;;29.19;36.97;96797.97;5046751;28;1530;-50
2021/08/05 04:50:30;;;;;;;;;;;;;;;29.13;37.38;96788.84;5048058;28;1117;-50
2021/08/05 04:52:55;;;;;;;;;;;;;;;29.13;37.15;96794.13;5048542;28;1394;-50
2021/08/05 04:55:21;;;;;;;;;;;;;;;29.13;37.04;96793.31;5046860;28;1503;-50
2021/08/05 04:57:46;;;;;;;;;;;;;;;29.11;37.02;96792.66;5044090;28;1723;-50
2021/08/05 05:00:12;;;;;;;;;;;;;;;29.13;36.98;96791.50;5048234;28;1265;-49
2021/08/05 05:02:37;;;;;;;;;;;;;;;29.08;37.04;96793.81;5046628;28;1906;-51
2021/08/05 05:05:02;;;;;;;;;;;;;;;29.00;37.35;96791.13;5043167;28;1617;-50
2021/08/05 05:07:27;;;;;;;;;;;;;;;29.01;37.27;96784.84;5048568;28;1097;-50
2021/08/05 05:09:53;;;;;;;;;;;;;;;29.32;36.86;96784.25;5049317;28;1461;-50
2021/08/05 05:12:18;;;;;;;;;;;;;;;28.90;37.46;96785.09;5046715;28;1697;-50
2021/08/05 05:14:43;;;;;;;;;;;;;;;29.03;37.41;96782.84;5049771;28;1171;-50
2021/08/05 05:17:08;;;;;;;;;;;;;;;28.97;37.56;96787.97;5047685;28;1171;-50
2021/08/05 05:19:33;;;;;;;;;;;;;;;29.04;37.34;96781.84;5047641;28;1129;-50
2021/08/05 05:21:59;;;;;;;;;;;;;;;28.93;37.49;96782.16;5045120;28;1981;-50
2021/08/05 05:24:24;;;;;;;;;;;;;;;29.01;37.21;96784.00;5047397;28;1210;-50
2021/08/05 05:26:49;;;;;;;;;;;;;;;28.92;37.58;96783.16;5047538;28;1636;-50
2021/08/05 05:29:14;;;;;;;;;;;;;;;28.91;37.57;96786.75;5047227;28;1277;-49
2021/08/05 05:31:39;;;;;;;;;;;;;;;29.03;37.40;96780.19;5049743;28;1209;-50
2021/08/05 05:34:04;;;;;;;;;;;;;;;29.03;37.53;96782.84;5050206;28;1163;-50
2021/08/05 05:36:30;;;;;;;;;;;;;;;29.07;37.29;96781.53;5046908;28;1648;-51
2021/08/05 05:38:55;;;;;;;;;;;;;;;29.02;37.22;96775.88;5047936;28;1005;-50
2021/08/05 05:41:20;;;;;;;;;;;;;;;29.19;36.85;96777.56;5046117;28;1977;-50
2021/08/05 05:43:45;;;;;;;;;;;;;;;29.08;37.30;96777.88;5049402;28;1105;-50
2021/08/05 05:46:11;;;;;;;;;;;;;;;29.03;37.17;96780.19;5044352;28;1652;-50
2021/08/05 05:48:36;;;;;;;;;;;;;;;29.01;37.19;96776.88;5043763;28;1526;-50
2021/08/05 05:51:01;;;;;;;;;;;;;;;29.00;37.40;96777.88;5047813;28;1390;-50
2021/08/05 05:53:26;;;;;;;;;;;;;;;28.95;37.63;96766.88;5048008;28;1218;-50
2021/08/05 05:55:52;;;;;;;;;;;;;;;29.12;37.13;96768.59;5048715;28;1573;-50
2021/08/05 05:58:17;;;;;;;;;;;;;;;29.07;37.34;96776.22;5046060;28;1297;-50
2021/08/05 06:00:42;;;;;;;;;;;;;;;29.14;37.36;96771.06;5046929;28;1195;-50
2021/08/05 06:03:07;;;;;;;;;;;;;;;29.10;37.20;96769.75;5046777;28;1988;-50
2021/08/05 06:05:33;;;;;;;;;;;;;;;28.96;37.29;96773.84;5045654;28;1628;-51
2021/08/05 06:07:58;;;;;;;;;;;;;;;29.11;37.33;96776.72;5047035;28;1462;-50
2021/08/05 06:10:23;;;;;;;;;;;;;;;29.02;37.22;96780.34;5042469;28;1874;-49
2021/08/05 06:12:49;;;;;;;;;;;;;;;29.24;36.97;96782.41;5045214;28;1602;-50
2021/08/05 06:15:14;;;;;;;;;;;;;;;28.93;37.46;96782.16;5045703;28;1561;-50
2021/08/05 06:17:41;;;;;;;;;;;;;;;29.02;37.39;96783.84;5048141;28;1206;-50
2021/08/05 06:20:06;;;;;;;;;;;;;;;28.97;37.39;96791.44;5045791;28;1239;-50
2021/08/05 06:22:32;;;;;;;;;;;;;;;29.01;37.62;96791.97;5045563;28;1977;-50
2021/08/05 06:24:57;;;;;;;;;;;;;;;28.92;37.58;96783.16;5045025;28;1688;-50
2021/08/05 06:27:23;;;;;;;;;;;;;;;29.03;37.60;96790.81;5044869;28;1964;-50
2021/08/05 06:29:48;;;;;;;;;;;;;;;28.96;37.41;96791.59;5045855;28;1387;-50
2021/08/05 06:32:14;;;;;;;;;;;;;;;29.00;37.58;96785.81;5046492;28;1197;-50
2021/08/05 06:34:39;;;;;;;;;;;;;;;29.01;37.56;96797.28;5045073;28;1566;-50
2021/08/05 06:37:04;;;;;;;;;;;;;;;28.92;37.59;96791.94;5047234;28;1013;-50
2021/08/05 06:39:29;;;;;;;;;;;;;;;28.89;37.76;96802.00;5045860;28;1729;-50
2021/08/05 06:41:54;;;;;;;;;;;;;;;29.09;37.47;96797.31;5045540;28;1898;-51
2021/08/05 06:44:20;;;;;;;;;;;;;;;28.88;37.64;96803.81;5047611;28;970;-51
2021/08/05 06:46:45;;;;;;;;;;;;;;;28.91;37.94;96808.84;5046279;28;1129;-49
2021/08/05 06:49:10;;;;;;;;;;;;;;;28.99;37.75;96805.38;5047398;28;1707;-50
2021/08/05 06:51:35;;;;;;;;;;;;;;;29.13;37.27;96799.44;5047118;28;1382;-50
2021/08/05 06:54:00;;;;;;;;;;;;;;;29.06;37.41;96800.25;5045965;28;1242;-50
2021/08/05 06:56:26;;;;;;;;;;;;;;;28.94;37.87;96804.22;5044188;28;1555;-49
2021/08/05 06:58:51;;;;;;;;;;;;;;;29.00;37.45;96804.41;5043346;28;1563;-49
2021/08/05 07:01:16;;;;;;;;;;;;;;;28.98;37.71;96795.75;5046262;28;1934;-50
2021/08/05 07:03:41;;;;;;;;;;;;;;;28.96;37.58;96795.09;5046011;28;1231;-49
2021/08/05 07:06:07;;;;;;;;;;;;;;;29.01;37.51;96805.25;5043441;28;1521;-50
2021/08/05 07:08:33;;;;;;;;;;;;;;;28.96;37.51;96804.88;5046751;28;1183;-51
2021/08/05 07:10:58;;;;;;;;;;;;;;;28.97;37.72;96795.91;5043393;28;1530;-50
2021/08/05 07:13:23;;;;;;;;;;;;;;;28.96;37.50;96800.41;5083362;22;1782;-50
2021/08/05 07:15:48;;;;;;;;;;;;;;;29.00;37.56;96801.75;5076795;28;1519;-49
2021/08/05 07:18:14;;;;;;;;;;;;;;;29.06;37.35;96797.59;5086559;28;1190;-50
2021/08/05 07:20:39;;;;;;;;;;;;;;;28.99;37.70;96797.41;5084591;28;1405;-50
2021/08/05 07:23:04;;;;;;;;;;;;;;;28.93;37.72;96798.06;5084009;28;1987;-50
2021/08/05 07:25:29;;;;;;;;;;;;;;;28.94;37.72;96797.09;5083545;28;1561;-50
2021/08/05 07:27:55;;;;;;;;;;;;;;;28.97;37.81;96796.75;5085457;28;1590;-50
2021/08/05 07:30:20;;;;;;;;;;;;;;;28.99;37.65;96797.41;5086341;28;1131;-50
2021/08/05 07:32:45;;;;;;;;;;;;;;;28.87;37.87;96794.19;5089942;28;1375;-50
2021/08/05 07:35:11;;;;;;;;;;;;;;;28.91;37.87;96794.72;5089031;28;1548;-50
2021/08/05 07:37:36;;;;;;;;;;;;;;;28.97;37.84;96794.09;5090285;28;1196;-50
2021/08/05 07:40:01;;;;;;;;;;;;;;;29.03;37.61;96798.75;5089435;28;1140;-50
2021/08/05 07:42:27;;;;;;;;;;;;;;;28.92;38.03;96791.09;5088442;28;1909;-50
2021/08/05 07:44:52;;;;;;;;;;;;;;;29.11;37.73;96798.78;5089297;28;1313;-50
2021/08/05 07:47:18;;;;;;;;;;;;;;;29.03;37.72;96796.13;5090404;28;1175;-49
2021/08/05 07:49:43;;;;;;;;;;;;;;;28.45;38.97;96796.84;5088697;28;1845;-50
2021/08/05 07:52:10;;;;;;;;;;;;;;;28.45;39.17;96801.31;5089340;28;1288;-50
2021/08/05 07:54:35;;;;;;;;;;;;;;;28.68;38.40;96796.28;5089328;28;1116;-50
2021/08/05 07:57:00;;;;;;;;;;;;;;;28.93;37.83;96800.72;5087396;28;1668;-50
2021/08/05 07:59:25;;;;;;;;;;;;;;;28.87;37.81;96793.38;5088811;28;1250;-51
2021/08/05 08:01:50;;;;;;;;;;;;;;;28.91;37.94;96797.38;5083390;28;1917;-50
2021/08/05 08:04:16;;;;;;;;;;;;;;;29.26;37.43;96799.00;5084156;28;1105;-50
2021/08/05 08:06:41;;;;;;;;;;;;;;;28.67;38.59;96802.56;5085243;28;1630;-50
2021/08/05 08:09:07;;;;;;;;;;;;;;;28.87;38.12;96796.84;5084423;28;997;-50
2021/08/05 08:11:32;;;;;;;;;;;;;;;29.08;37.66;96801.78;5083679;28;1635;-50
2021/08/05 08:13:57;;;;;;;;;;;;;;;28.44;39.12;96804.91;5087034;28;1116;-50
2021/08/05 08:16:22;;;;;;;;;;;;;;;28.67;38.87;96806.03;5086781;28;1104;-52
2021/08/05 08:18:48;;;;;;;;;;;;;;;28.58;39.10;96802.53;5084617;28;1610;-52
2021/08/05 08:21:13;;;;;;;;;;;;;;;28.38;39.49;96803.75;5079990;28;1910;-50
2021/08/05 08:23:38;;;;;;;;;;;;;;;28.26;39.76;96799.66;5085090;28;1280;-49
2021/08/05 08:26:04;;;;;;;;;;;;;;;28.31;39.50;96800.06;5083041;28;1614;-50
2021/08/05 08:28:29;;;;;;;;;;;;;;;28.24;39.74;96802.47;5087640;28;1172;-50
2021/08/05 08:30:54;;;;;;;;;;;;;;;28.12;39.77;96803.69;5084832;28;1144;-51
2021/08/05 08:33:20;;;;;;;;;;;;;;;28.16;39.60;96799.75;5086380;28;1275;-50
2021/08/05 08:35:45;;;;;;;;;;;;;;;28.19;39.95;96801.25;5081797;28;1643;-49
2021/08/05 08:38:10;;;;;;;;;;;;;;;28.47;39.25;96810.75;5087571;28;1273;-51
2021/08/05 08:40:35;;;;;;;;;;;;;;;28.59;38.95;96814.78;5086477;28;1200;-51
2021/08/05 08:43:01;;;;;;;;;;;;;;;28.94;38.36;96804.22;5076464;28;1917;-57
2021/08/05 08:45:26;;;;;;;;;;;;;;;29.12;37.96;96808.41;5083221;28;1068;-56
2021/08/05 08:47:52;;;;;;;;;;;;;;;29.18;37.86;96807.78;5091283;28;1168;-55
2021/08/05 08:50:17;;;;;;;;;;;;;;;29.35;37.58;96808.63;5094278;28;1524;-53
2021/08/05 08:52:44;;;;;;;;;;;;;;;29.07;38.04;96800.13;5086308;28;1299;-56
2021/08/05 08:55:09;;;;;;;;;;;;;;;29.45;37.37;96800.50;5083785;28;1143;-56
2021/08/05 08:57:34;;;;;;;;;;;;;;;28.76;38.71;96796.31;5081147;28;1662;-56
2021/08/05 09:00:00;;;;;;;;;;;;;;;29.23;37.70;96807.31;5074331;28;1108;-55
2021/08/05 09:02:25;;;;;;;;;;;;;;;29.21;37.98;96801.28;5072172;28;1961;-56
2021/08/05 09:04:50;;;;;;;;;;;;;;;28.89;38.21;96802.81;5083147;28;1536;-56
2021/08/05 09:07:16;;;;;;;;;;;;;;;28.30;39.89;96790.44;5076550;28;1192;-57
2021/08/05 09:09:41;;;;;;;;;;;;;;;28.49;39.69;96797.34;5082753;28;1698;-54
2021/08/05 09:12:13;;;;;;;;;;;;;;;29.15;38.27;96789.53;5081629;28;1485;-55
2021/08/05 09:14:45;;;;;;;;;;;;;;;29.32;37.74;96789.56;5082349;28;1040;-54
2021/08/05 09:17:16;;;;;;;;;;;;;;;29.41;37.59;96789.41;5083268;28;1251;-55
2021/08/05 09:19:42;;;;;;;;;;;;;;;29.22;37.73;96788.84;5084479;28;1611;-52
2021/08/05 09:22:07;;;;;;;;;;;;;;;29.55;37.24;96787.13;5082271;28;1906;-53
2021/08/05 09:24:32;;;;;;;;;;;;;;;29.55;37.11;96790.63;5082600;28;1045;-53
2021/08/05 09:26:59;;;;;;;;;;;;;;;29.53;37.36;96795.25;5082451;28;1579;-53
2021/08/05 09:29:24;;;;;;;;;;;;;;;29.16;38.31;96785.88;5083617;28;1243;-53
2021/08/05 09:31:50;;;;;;;;;;;;;;;29.31;38.20;96783.41;5082778;28;1382;-52
2021/08/05 09:34:19;;;;;;;;;;;;;;;28.78;39.02;96784.56;5081462;28;1685;-55
2021/08/05 09:36:44;;;;;;;;;;;;;;;28.38;39.95;96787.00;5084370;28;1275;-53
2021/08/05 09:39:13;;;;;;;;;;;;;;;28.27;40.25;96786.22;5085689;28;1293;-54
2021/08/05 09:41:49;;;;;;;;;;;;;;;29.07;38.56;96792.16;5081820;28;1922;-54
2021/08/05 09:44:14;;;;;;;;;;;;;;;29.22;38.30;96789.69;5090871;28;1387;-54
2021/08/05 09:46:39;;;;;;;;;;;;;;;29.05;38.63;96785.31;5084048;28;1113;-53
2021/08/05 09:49:04;;;;;;;;;;;;;;;28.91;38.70;96782.31;5085036;28;1092;-55
2021/08/05 09:51:29;;;;;;;;;;;;;;;28.60;39.34;96784.66;5071593;28;1608;-54
2021/08/05 09:53:55;;;;;;;;;;;;;;;28.45;39.92;96780.91;5081962;28;1309;-56
2021/08/05 09:56:20;;;;;;;;;;;;;;;28.50;39.83;96783.09;5078184;28;1559;-54
2021/08/05 09:58:46;;;;;;;;;;;;;;;28.77;39.19;96774.94;5072647;28;1135;-54
2021/08/05 10:01:12;;;;;;;;;;;;;;;28.85;39.14;96777.63;5082754;28;1902;-52
2021/08/05 10:03:39;;;;;;;;;;;;;;;28.85;39.07;96782.91;5071979;28;1288;-53
2021/08/05 10:06:06;;;;;;;;;;;;;;;29.17;38.47;96781.38;5083269;28;1579;-54
2021/08/05 10:08:32;;;;;;;;;;;;;;;28.93;38.82;96779.50;5082477;28;1139;-53
2021/08/05 10:10:57;;;;;;;;;;;;;;;28.77;39.06;96768.78;5081951;28;1634;-52
2021/08/05 10:13:26;;;;;;;;;;;;;;;29.16;38.26;96780.56;5080063;28;1594;-52
2021/08/05 10:15:51;;;;;;;;;;;;;;;29.01;38.69;96776.88;5084968;28;1567;-51
2021/08/05 10:18:16;;;;;;;;;;;;;;;29.13;38.40;96775.56;5086747;28;1076;-52
2021/08/05 10:20:41;;;;;;;;;;;;;;;28.55;39.54;96778.16;5087328;28;1277;-52
2021/08/05 10:23:08;;;;;;;;;;;;;;;28.98;38.77;96773.69;5072589;28;2036;-52
2021/08/05 10:25:33;;;;;;;;;;;;;;;29.15;38.37;96780.69;5076845;28;1400;-51
2021/08/05 10:28:00;;;;;;;;;;;;;;;29.12;38.33;96767.75;5072951;28;1646;-52
2021/08/05 10:30:25;;;;;;;;;;;;;;;29.15;38.44;96773.59;5086542;28;1167;-54
2021/08/05 10:32:51;;;;;;;;;;;;;;;29.43;37.96;96768.81;5085911;28;1287;-55
2021/08/05 10:35:16;;;;;;;;;;;;;;;29.44;37.79;96766.97;5087657;28;1322;-55
2021/08/05 10:37:41;;;;;;;;;;;;;;;29.31;37.79;96756.00;5082615;28;1615;-52
2021/08/05 10:40:07;;;;;;;;;;;;;;;29.33;37.83;96762.84;5078020;28;1245;-51
2021/08/05 10:42:33;;;;;;;;;;;;;;;29.40;37.85;96755.03;5084437;28;1901;-53
2021/08/05 10:44:58;;;;;;;;;;;;;;;29.43;37.94;96752.03;5086223;28;1111;-53
2021/08/05 10:47:24;;;;;;;;;;;;;;;29.29;37.87;96750.84;5085660;28;1322;-53
2021/08/05 10:49:50;;;;;;;;;;;;;;;29.38;37.48;96749.88;5077610;28;1028;-54
2021/08/05 10:52:34;;;;;;;;;;;;;;;29.32;37.67;96744.41;5081375;28;1619;-54
2021/08/05 10:54:59;;;;;;;;;;;;;;;29.28;38.06;96751.03;5085552;28;1156;-54
2021/08/05 10:57:24;;;;;;;;;;;;;;;29.22;38.31;96744.53;5083444;28;1605;-54
2021/08/05 10:59:56;;;;;;;;;;;;;;;29.39;37.88;96748.91;5084588;28;1368;-54
2021/08/05 11:02:40;;;;;;;;;;;;;;;29.20;38.38;96750.00;5081124;28;1914;-53
2021/08/05 11:05:05;;;;;;;;;;;;;;;29.26;37.71;96748.53;5076833;28;1316;-53
2021/08/05 11:07:32;;;;;;;;;;;;;;;29.34;37.97;96740.59;5091578;28;1769;-53
2021/08/05 11:10:12;;;;;;;;;;;;;;;29.28;37.84;96743.06;5088922;28;1488;-53
2021/08/05 11:12:45;;;;;;;;;;;;;;;29.19;38.00;96743.03;5088094;28;1568;-53
2021/08/05 11:15:19;;;;;;;;;;;;;;;29.40;37.94;96739.09;5075356;28;1620;-54
2021/08/05 11:18:03;;;;;;;;;;;;;;;29.32;37.82;96728.47;5090758;28;958;-53
2021/08/05 11:20:28;;;;;;;;;;;;;;;29.23;37.98;96732.94;5090931;28;1214;-53
2021/08/05 11:22:53;;;;;;;;;;;;;;;29.40;37.75;96728.47;5090320;28;1979;-53
2021/08/05 11:25:19;;;;;;;;;;;;;;;29.38;38.05;96735.75;5086313;28;1582;-53
2021/08/05 11:28:04;;;;;;;;;;;;;;;29.53;37.50;96739.44;5088532;28;1555;-54
2021/08/05 11:31:02;;;;;;;;;;;;;;;29.43;37.54;96736.94;5086920;28;1500;-53
2021/08/05 11:33:36;;;;;;;;;;;;;;;29.26;38.06;96729.94;5040114;28;1354;-52
2021/08/05 11:36:10;;;;;;;;;;;;;;;29.35;38.16;96736.09;5086946;28;1538;-52
2021/08/05 11:38:51;;;;;;;;;;;;;;;29.51;37.60;96735.31;5089042;28;1566;-53
2021/08/05 11:41:23;;;;;;;;;;;;;;;29.34;37.99;96731.78;5076815;28;1905;-54
2021/08/05 11:43:48;;;;;;;;;;;;;;;29.23;38.04;96734.75;5078848;28;1490;-52
2021/08/05 11:46:19;;;;;;;;;;;;;;;29.35;37.85;96730.78;5089893;28;1243;-53
2021/08/05 11:48:45;;;;;;;;;;;;;;;29.46;37.64;96728.63;5086938;28;1267;-53
2021/08/05 11:51:10;;;;;;;;;;;;;;;29.23;37.95;96732.94;5089236;28;1707;-54
2021/08/05 11:53:40;;;;;;;;;;;;;;;29.42;37.90;96727.31;5087923;28;1342;-53
2021/08/05 11:56:09;;;;;;;;;;;;;;;29.21;38.02;96734.91;5076583;28;1592;-53
2021/08/05 11:58:40;;;;;;;;;;;;;;;29.27;38.00;96718.31;5086682;28;1563;-53
2021/08/05 12:01:10;;;;;;;;;;;;;;;28.41;40.00;96726.50;5083051;28;1536;-53
2021/08/05 12:03:35;;;;;;;;;;;;;;;28.84;39.06;96719.41;5087503;28;1303;-53
2021/08/05 12:06:01;;;;;;;;;;;;;;;28.79;39.25;96711.91;5088408;28;1331;-53
2021/08/05 12:08:26;;;;;;;;;;;;;;;28.49;39.69;96713.28;5087419;28;1493;-53
2021/08/05 12:10:51;;;;;;;;;;;;;;;28.70;39.32;96704.91;5087033;28;1658;-53
2021/08/05 12:13:17;;;;;;;;;;;;;;;28.62;39.40;96703.06;5078289;28;1309;-53
2021/08/05 12:15:43;;;;;;;;;;;;;;;28.33;40.15;96702.63;5089982;28;1139;-54
2021/08/05 12:18:15;;;;;;;;;;;;;;;28.44;39.72;96705.00;5087851;28;1045;-53
2021/08/05 12:20:42;;;;;;;;;;;;;;;28.49;40.08;96697.38;5085989;28;1473;-53
2021/08/05 12:23:09;;;;;;;;;;;;;;;28.72;39.46;96694.97;5088570;28;2020;-54
2021/08/05 12:25:38;;;;;;;;;;;;;;;28.07;40.80;96689.38;5089159;28;1412;-53
2021/08/05 12:28:06;;;;;;;;;;;;;;;28.30;40.51;96684.38;5088771;28;1760;-53
2021/08/05 12:30:32;;;;;;;;;;;;;;;28.31;40.24;96681.56;5087891;28;1626;-52
2021/08/05 12:32:58;;;;;;;;;;;;;;;28.33;40.21;96676.09;5089347;28;1303;-53
2021/08/05 12:35:23;;;;;;;;;;;;;;;28.13;40.64;96672.00;5089134;28;1068;-53
2021/08/05 12:38:02;;;;;;;;;;;;;;;28.14;40.85;96673.66;5087761;28;1594;-53
2021/08/05 12:40:27;;;;;;;;;;;;;;;28.01;40.70;96666.97;5087662;28;1364;-53
2021/08/05 12:42:52;;;;;;;;;;;;;;;28.26;40.30;96667.09;5087394;28;1897;-53
2021/08/05 12:45:17;;;;;;;;;;;;;;;28.29;40.04;96659.69;5076024;28;1625;-53
2021/08/05 12:47:43;;;;;;;;;;;;;;;28.23;40.38;96657.63;5078077;28;1200;-52
2021/08/05 12:50:08;;;;;;;;;;;;;;;28.23;40.31;96672.72;5088698;28;1137;-53
2021/08/05 12:52:39;;;;;;;;;;;;;;;28.31;40.21;96656.88;5088985;28;1283;-52
2021/08/05 12:55:05;;;;;;;;;;;;;;;28.21;40.39;96664.09;5086374;28;1471;-53